Terminal Aerodrome Forecast
Issued by NWS

Home | Current Version | Previous Version | Text Only | Print | Product List | Glossary On
Versions: 1 2 3 4 5 6 7 8 9 10 11 12 13 14 15 16 17 18 19 20 21
000
FTUS43 KDDC 261124 AAA
TAFGCK
TAF AMD
KGCK 261124Z 2611/2712 07003KT 1/4SM FG VV001
     FM261500 20007KT P6SM BKN060
     FM262300 14008KT P6SM VCTS SCT100CB=

USA.gov is the U.S. government's official web portal to all federal, state and local government web resources and services.